createdAt,value
2022-09-13T00:00:18.760Z,98599.16
2022-09-13T00:03:04.691Z,98600.38
2022-09-13T00:05:50.052Z,98583.75
2022-09-13T00:08:35.373Z,98592.06
2022-09-13T00:11:23.799Z,98590.84
2022-09-13T00:14:09.116Z,98583.75
2022-09-13T00:16:54.431Z,98586.53
2022-09-13T00:19:39.664Z,98580.16
2022-09-13T00:22:24.903Z,98579.41
2022-09-13T00:25:10.365Z,98575.06
2022-09-13T00:27:55.907Z,98577.06
2022-09-13T00:30:41.073Z,98576.28
2022-09-13T00:33:26.149Z,98567.19
2022-09-13T00:36:12.640Z,98555.31
2022-09-13T00:39:00.014Z,98558.09
2022-09-13T00:41:45.442Z,98552.53
2022-09-13T00:45:12.249Z,98544.22
2022-09-13T00:48:03.869Z,98539.09
2022-09-13T00:50:54.994Z,98538.31
2022-09-13T00:53:47.361Z,98535.19
2022-09-13T00:56:43.822Z,98522.91
2022-09-13T00:59:34.972Z,98532.00
2022-09-13T01:02:21.405Z,98531.22
2022-09-13T01:05:07.491Z,98526.88
2022-09-13T01:07:53.026Z,98525.34
2022-09-13T01:10:41.619Z,98517.78
2022-09-13T01:13:32.207Z,98521.34
2022-09-13T01:16:18.159Z,98522.56
2022-09-13T01:19:03.482Z,98514.25
2022-09-13T01:22:10.193Z,98522.56
2022-09-13T01:25:32.794Z,98504.69
2022-09-13T01:28:55.793Z,98505.56
2022-09-13T01:31:56.377Z,98496.03
2022-09-13T01:34:59.232Z,98492.06
2022-09-13T01:38:13.623Z,98494.47
2022-09-13T01:41:25.035Z,98494.47
2022-09-13T01:44:46.035Z,98486.59
2022-09-13T01:47:54.723Z,98483.03
2022-09-13T01:50:48.860Z,98485.81
2022-09-13T01:54:02.781Z,98485.03
2022-09-13T01:57:11.286Z,98476.72
2022-09-13T02:00:10.523Z,98467.59
2022-09-13T02:03:11.652Z,98456.50
2022-09-13T02:06:03.609Z,98460.50
2022-09-13T02:09:00.545Z,98460.50
2022-09-13T02:11:51.417Z,98460.50
2022-09-13T02:14:43.462Z,98457.75
2022-09-13T02:17:34.115Z,98457.38
2022-09-13T02:20:33.332Z,98464.84
2022-09-13T02:23:26.526Z,98453.31
2022-09-13T02:26:15.398Z,98450.19
2022-09-13T02:29:06.744Z,98456.84
2022-09-13T02:32:00.113Z,98460.50
2022-09-13T02:34:54.152Z,98462.06
2022-09-13T02:37:41.780Z,98459.75
2022-09-13T02:40:32.341Z,98446.72
2022-09-13T02:43:31.599Z,98453.84
2022-09-13T02:46:29.435Z,98451.84
2022-09-13T02:49:41.125Z,98454.97
2022-09-13T02:52:48.410Z,98455.03
2022-09-13T02:56:11.419Z,98455.81
2022-09-13T02:59:10.160Z,98448.72
2022-09-13T03:02:09.954Z,98444.06
2022-09-13T03:04:55.651Z,98440.47
2022-09-13T03:07:41.068Z,98440.06
2022-09-13T03:10:36.761Z,98436.50
2022-09-13T03:13:34.989Z,98436.94
2022-09-13T03:16:38.949Z,98433.75
2022-09-13T03:19:33.723Z,98417.53
2022-09-13T03:22:53.077Z,98415.53
2022-09-13T03:25:52.461Z,98410.78
2022-09-13T03:29:05.188Z,98420.31
2022-09-13T03:32:01.668Z,98406.44
2022-09-13T03:35:16.941Z,98401.34
2022-09-13T03:38:19.933Z,98395.63
2022-09-13T03:41:10.919Z,98392.38
2022-09-13T03:44:02.149Z,98384.41
2022-09-13T03:46:52.265Z,98395.34
2022-09-13T03:49:39.389Z,98393.00
2022-09-13T03:52:24.912Z,98390.56
2022-09-13T03:55:10.831Z,98386.56
2022-09-13T03:57:56.409Z,98386.50
2022-09-13T04:00:42.204Z,98391.16
2022-09-13T04:03:27.472Z,98396.28
2022-09-13T04:06:12.677Z,98394.28
2022-09-13T04:08:59.786Z,98394.19
2022-09-13T04:11:45.310Z,98397.81
2022-09-13T04:14:31.000Z,98390.31
2022-09-13T04:17:16.538Z,98397.72
2022-09-13T04:20:02.181Z,98392.53
2022-09-13T04:22:54.990Z,98385.41
2022-09-13T04:25:40.667Z,98386.97
2022-09-13T04:28:25.838Z,98396.41
2022-09-13T04:31:11.159Z,98388.88
2022-09-13T04:33:56.423Z,98390.00
2022-09-13T04:36:41.677Z,98397.88
2022-09-13T04:39:27.414Z,98396.00
2022-09-13T04:42:12.846Z,98399.13
2022-09-13T04:44:58.237Z,98392.69
2022-09-13T04:47:43.732Z,98399.34
2022-09-13T04:50:28.967Z,98391.00
2022-09-13T04:53:15.095Z,98387.03
2022-09-13T04:56:04.404Z,98390.25
2022-09-13T04:58:56.225Z,98390.59
2022-09-13T05:01:41.877Z,98379.38
2022-09-13T05:04:27.617Z,98384.94
2022-09-13T05:07:13.011Z,98389.69
2022-09-13T05:09:58.357Z,98386.69
2022-09-13T05:12:43.611Z,98378.03
2022-09-13T05:15:28.868Z,98376.56
2022-09-13T05:18:14.262Z,98378.22
2022-09-13T05:21:01.101Z,98373.53
2022-09-13T05:23:49.949Z,98368.88
2022-09-13T05:26:35.673Z,98365.34
2022-09-13T05:29:20.770Z,98365.00
2022-09-13T05:32:06.195Z,98364.19
2022-09-13T05:34:51.547Z,98366.97
2022-09-13T05:37:36.699Z,98362.66
2022-09-13T05:40:22.009Z,98368.63
2022-09-13T05:43:07.240Z,98366.63
2022-09-13T05:46:00.019Z,98363.53
2022-09-13T05:48:46.678Z,98353.97
2022-09-13T05:51:32.342Z,98350.09
2022-09-13T05:54:17.634Z,98340.19
2022-09-13T05:57:03.130Z,98349.31
2022-09-13T05:59:48.325Z,98348.22
2022-09-13T06:02:33.603Z,98339.44
2022-09-13T06:05:18.783Z,98337.13
2022-09-13T06:08:03.934Z,98333.19
2022-09-13T06:11:04.230Z,98339.09
2022-09-13T06:13:50.226Z,98327.22
2022-09-13T06:16:37.002Z,98336.78
2022-09-13T06:19:22.291Z,98334.00
2022-09-13T06:22:07.893Z,98331.22
2022-09-13T06:24:53.407Z,98319.69
2022-09-13T06:27:38.559Z,98321.69
2022-09-13T06:30:23.820Z,98317.34
2022-09-13T06:33:09.038Z,98324.44
2022-09-13T06:35:54.528Z,98325.69
2022-09-13T06:38:40.067Z,98333.66
2022-09-13T06:41:27.337Z,98324.09
2022-09-13T06:44:13.000Z,98336.44
2022-09-13T06:46:58.148Z,98332.09
2022-09-13T06:49:43.409Z,98333.75
2022-09-13T06:52:28.886Z,98330.19
2022-09-13T06:55:14.620Z,98330.19
2022-09-13T06:57:59.916Z,98332.97
2022-09-13T07:00:45.073Z,98325.84
2022-09-13T07:03:30.419Z,98323.06
2022-09-13T07:06:27.019Z,98311.97
2022-09-13T07:09:14.969Z,98312.44
2022-09-13T07:12:00.601Z,98304.56
2022-09-13T07:14:46.083Z,98306.91
2022-09-13T07:17:31.748Z,98299.00
2022-09-13T07:20:17.451Z,98294.22
2022-09-13T07:23:02.835Z,98306.09
2022-09-13T07:25:55.137Z,98306.91
2022-09-13T07:28:42.781Z,98305.31
2022-09-13T07:31:31.548Z,98310.44
2022-09-13T07:34:20.472Z,98311.63
2022-09-13T07:37:06.161Z,98307.66
2022-09-13T07:39:51.486Z,98317.53
2022-09-13T07:42:36.716Z,98304.13
2022-09-13T07:45:23.863Z,98311.63
2022-09-13T07:48:09.266Z,98303.31
2022-09-13T07:51:02.174Z,98317.19
2022-09-13T07:53:52.620Z,98314.09
2022-09-13T07:56:42.269Z,98305.78
2022-09-13T07:59:30.212Z,98315.63
2022-09-13T08:02:18.032Z,98319.66
2022-09-13T08:05:03.377Z,98311.75
2022-09-13T08:07:48.596Z,98322.84
2022-09-13T08:10:35.077Z,98328.38
2022-09-13T08:13:20.636Z,98333.94
2022-09-13T08:16:06.965Z,98324.38
2022-09-13T08:18:55.785Z,98329.59
2022-09-13T08:21:42.530Z,98335.94
2022-09-13T08:24:28.496Z,98331.94
2022-09-13T08:27:13.676Z,98335.13
2022-09-13T08:29:58.940Z,98340.69
2022-09-13T08:32:44.215Z,98348.22
2022-09-13T08:35:30.026Z,98350.56
2022-09-13T08:38:15.346Z,98351.00
2022-09-13T08:41:06.202Z,98347.03
2022-09-13T08:44:03.247Z,98336.72
2022-09-13T08:46:49.693Z,98337.91
2022-09-13T08:49:43.836Z,98338.34
2022-09-13T08:52:41.546Z,98345.09
2022-09-13T08:55:43.260Z,98335.94
2022-09-13T08:58:49.374Z,98334.81
2022-09-13T09:01:47.509Z,98330.81
2022-09-13T09:04:56.800Z,98329.28
2022-09-13T09:07:52.212Z,98339.91
2022-09-13T09:10:42.280Z,98339.91
2022-09-13T09:13:51.118Z,98323.72
2022-09-13T09:16:45.302Z,98318.97
2022-09-13T09:19:37.754Z,98317.38
2022-09-13T09:22:28.718Z,98322.16
2022-09-13T09:25:14.343Z,98316.19
2022-09-13T09:27:59.658Z,98310.28
2022-09-13T09:31:19.905Z,98313.41
2022-09-13T09:34:14.577Z,98307.88
2022-09-13T09:37:11.579Z,98301.56
2022-09-13T09:40:08.114Z,98299.56
2022-09-13T09:42:54.418Z,98295.22
2022-09-13T09:45:41.887Z,98295.22
2022-09-13T09:48:32.573Z,98294.78
2022-09-13T09:51:22.264Z,98287.22
2022-09-13T09:54:07.702Z,98281.69
2022-09-13T09:56:55.342Z,98280.47
2022-09-13T09:59:40.616Z,98274.94
2022-09-13T10:02:25.903Z,98265.41
2022-09-13T10:05:14.450Z,98255.88
2022-09-13T10:08:05.292Z,98269.75
2022-09-13T10:10:57.356Z,98260.97
2022-09-13T10:13:59.349Z,98255.75
2022-09-13T10:16:44.596Z,98255.00
2022-09-13T10:19:29.963Z,98248.22
2022-09-13T10:22:15.136Z,98241.13
2022-09-13T10:25:22.420Z,98243.47
2022-09-13T10:28:14.478Z,98241.47
2022-09-13T10:31:06.304Z,98238.69
2022-09-13T10:33:51.430Z,98231.16
2022-09-13T10:36:53.663Z,98230.38
2022-09-13T10:39:57.384Z,98233.16
2022-09-13T10:42:53.368Z,98228.38
2022-09-13T10:45:38.734Z,98229.50
2022-09-13T10:48:24.674Z,98221.16
2022-09-13T10:51:28.325Z,98215.63
2022-09-13T10:54:23.225Z,98221.94
2022-09-13T10:57:31.166Z,98222.75
2022-09-13T11:00:22.875Z,98222.28
2022-09-13T11:03:19.954Z,98226.72
2022-09-13T11:06:11.130Z,98227.06
2022-09-13T11:09:25.597Z,98220.31
2022-09-13T11:12:29.625Z,98219.50
2022-09-13T11:15:25.371Z,98217.53
2022-09-13T11:18:23.232Z,98215.53
2022-09-13T11:21:08.473Z,98214.75
2022-09-13T11:24:10.687Z,98209.22
2022-09-13T11:27:05.242Z,98213.53
2022-09-13T11:30:10.967Z,98217.97
2022-09-13T11:33:24.622Z,98204.88
2022-09-13T11:36:25.294Z,98209.22
2022-09-13T11:39:39.024Z,98209.22
2022-09-13T11:42:27.379Z,98206.09
2022-09-13T11:45:24.125Z,98200.09
2022-09-13T11:48:41.778Z,98196.91
2022-09-13T11:51:45.664Z,98193.34
2022-09-13T11:55:06.388Z,98198.91
2022-09-13T11:58:13.491Z,98199.66
2022-09-13T12:01:01.723Z,98198.13
2022-09-13T12:03:59.930Z,98193.69
2022-09-13T12:06:53.707Z,98194.13
2022-09-13T12:09:50.033Z,98187.81
2022-09-13T12:12:37.528Z,98193.34
2022-09-13T12:15:33.022Z,98190.56
2022-09-13T12:18:49.586Z,98185.47
2022-09-13T12:21:41.233Z,98185.03
2022-09-13T12:24:47.547Z,98181.03
2022-09-13T12:27:54.587Z,98179.38
2022-09-13T12:30:53.774Z,98173.81
2022-09-13T12:33:41.175Z,98172.28
2022-09-13T12:36:58.732Z,98165.19
2022-09-13T12:40:03.894Z,98167.97
2022-09-13T12:43:08.579Z,98165.19
2022-09-13T12:45:58.805Z,98168.41
2022-09-13T12:49:09.085Z,98160.06
2022-09-13T12:51:54.391Z,98152.09
2022-09-13T12:54:53.795Z,98155.31
2022-09-13T12:58:06.442Z,98153.31
2022-09-13T13:00:58.095Z,98152.44
2022-09-13T13:03:52.128Z,98146.88
2022-09-13T13:06:55.119Z,98146.00
2022-09-13T13:09:48.003Z,98146.66
2022-09-13T13:12:37.213Z,98143.47
2022-09-13T13:15:25.469Z,98145.00
2022-09-13T13:18:24.715Z,98141.47
2022-09-13T13:21:23.381Z,98141.66
2022-09-13T13:24:15.590Z,98148.31
2022-09-13T13:27:01.176Z,98151.75
2022-09-13T13:30:31.882Z,98155.97
2022-09-13T13:33:28.759Z,98153.00
2022-09-13T13:36:28.885Z,98154.31
2022-09-13T13:39:23.099Z,98138.69
2022-09-13T13:42:24.651Z,98134.03
2022-09-13T13:45:20.763Z,98126.91
2022-09-13T13:48:12.583Z,98130.91
2022-09-13T13:51:18.830Z,98129.69
2022-09-13T13:54:32.016Z,98134.34
2022-09-13T13:57:25.121Z,98127.16
2022-09-13T14:00:22.298Z,98120.47
2022-09-13T14:03:07.264Z,98122.03
2022-09-13T14:06:04.662Z,98122.38
2022-09-13T14:12:05.212Z,98121.16
2022-09-13T14:14:53.263Z,98122.72
2022-09-13T14:17:53.797Z,98125.03
2022-09-13T14:20:57.450Z,98117.16
2022-09-13T14:23:43.185Z,98115.50
2022-09-13T14:26:28.507Z,98119.03
2022-09-13T14:29:20.909Z,98113.16
2022-09-13T14:32:10.708Z,98118.69
2022-09-13T14:35:03.022Z,98113.16
2022-09-13T14:37:48.739Z,98101.19
2022-09-13T14:40:34.044Z,98105.94
2022-09-13T14:43:22.407Z,98108.25
2022-09-13T14:46:19.720Z,98112.28
2022-09-13T14:49:10.120Z,98114.59
2022-09-13T14:52:00.023Z,98101.47
2022-09-13T14:54:51.235Z,98109.25
2022-09-13T15:00:25.933Z,98102.47
2022-09-13T15:03:16.051Z,98089.94
2022-09-13T15:06:05.320Z,98085.81
2022-09-13T15:08:53.106Z,98092.69
2022-09-13T15:11:59.779Z,98094.38
2022-09-13T15:14:45.250Z,98096.66
2022-09-13T15:17:30.539Z,98095.47
2022-09-13T15:20:16.703Z,98098.25
2022-09-13T15:23:02.147Z,98099.91
2022-09-13T15:25:51.418Z,98098.56
2022-09-13T15:28:54.038Z,98098.44
2022-09-13T15:31:39.800Z,98097.09
2022-09-13T15:34:27.634Z,98091.41
2022-09-13T15:37:15.214Z,98104.53
2022-09-13T15:40:14.678Z,98103.75
2022-09-13T15:43:02.245Z,98102.53
2022-09-13T15:45:47.291Z,98100.53
2022-09-13T15:48:36.053Z,98100.53
2022-09-13T15:51:23.161Z,98096.53
2022-09-13T15:54:13.309Z,98093.00
2022-09-13T15:56:59.453Z,98089.97
2022-09-13T15:59:44.896Z,98096.03
2022-09-13T16:02:33.972Z,98091.72
2022-09-13T16:05:20.159Z,98100.66
2022-09-13T16:08:05.300Z,98092.34
2022-09-13T16:10:51.035Z,98088.34
2022-09-13T16:13:36.656Z,98091.13
2022-09-13T16:16:21.885Z,98088.34
2022-09-13T16:19:15.518Z,98084.34
2022-09-13T16:22:00.918Z,98087.09
2022-09-13T16:24:46.703Z,98077.56
2022-09-13T16:27:34.083Z,98088.69
2022-09-13T16:30:22.242Z,98085.91
2022-09-13T16:33:07.645Z,98084.81
2022-09-13T16:35:53.078Z,98089.00
2022-09-13T16:38:38.768Z,98092.66
2022-09-13T16:41:25.802Z,98082.47
2022-09-13T16:44:11.102Z,98087.56
2022-09-13T16:46:56.534Z,98083.56
2022-09-13T16:49:42.182Z,98089.88
2022-09-13T16:52:29.066Z,98089.44
2022-09-13T16:55:14.289Z,98089.00
2022-09-13T16:57:59.699Z,98087.44
2022-09-13T17:00:45.311Z,98092.09
2022-09-13T17:03:31.114Z,98089.66
2022-09-13T17:06:18.405Z,98091.19
2022-09-13T17:09:06.602Z,98088.41
2022-09-13T17:11:51.964Z,98084.44
2022-09-13T17:14:37.774Z,98084.09
2022-09-13T17:17:23.231Z,98084.88
2022-09-13T17:20:12.287Z,98078.41
2022-09-13T17:22:57.660Z,98079.16
2022-09-13T17:25:47.613Z,98071.94
2022-09-13T17:28:35.458Z,98072.41
2022-09-13T17:31:21.217Z,98080.41
2022-09-13T17:34:06.787Z,98081.00
2022-09-13T17:36:52.702Z,98078.53
2022-09-13T17:39:38.577Z,98084.44
2022-09-13T17:42:24.066Z,98080.72
2022-09-13T17:45:10.493Z,98083.06
2022-09-13T17:47:59.688Z,98084.44
2022-09-13T17:50:46.456Z,98082.41
2022-09-13T17:53:37.166Z,98076.88
2022-09-13T17:56:32.251Z,98080.84
2022-09-13T17:59:21.546Z,98077.41
2022-09-13T18:02:07.254Z,98077.88
2022-09-13T18:04:52.680Z,98078.91
2022-09-13T18:07:38.383Z,98077.25
2022-09-13T18:10:45.676Z,98071.03
2022-09-13T18:13:30.389Z,98075.38
2022-09-13T18:16:27.580Z,98071.16
2022-09-13T18:19:13.290Z,98070.38
2022-09-13T18:22:01.433Z,98078.38
2022-09-13T18:24:47.049Z,98069.09
2022-09-13T18:27:32.977Z,98067.84
2022-09-13T18:30:18.315Z,98069.09
2022-09-13T18:33:03.773Z,98071.53
2022-09-13T18:35:59.433Z,98071.22
2022-09-13T18:38:47.548Z,98061.31
2022-09-13T18:41:34.454Z,98066.88
2022-09-13T18:44:20.034Z,98069.78
2022-09-13T18:47:08.770Z,98070.66
2022-09-13T18:49:53.975Z,98071.91
2022-09-13T18:52:40.179Z,98077.47
2022-09-13T18:55:25.819Z,98075.88
2022-09-13T18:58:13.567Z,98073.13
2022-09-13T19:01:09.866Z,98071.56
2022-09-13T19:03:58.691Z,98083.91
2022-09-13T19:06:49.855Z,98079.13
2022-09-13T19:09:35.945Z,98082.16
2022-09-13T19:12:21.232Z,98076.28
2022-09-13T19:15:07.223Z,98072.25
2022-09-13T19:17:52.767Z,98078.72
2022-09-13T19:20:39.606Z,98083.03
2022-09-13T19:23:37.771Z,98081.50
2022-09-13T19:26:34.367Z,98081.94
2022-09-13T19:29:22.718Z,98081.16
2022-09-13T19:32:08.089Z,98086.06
2022-09-13T19:34:53.290Z,98089.59
2022-09-13T19:37:38.563Z,98094.06
2022-09-13T19:40:23.940Z,98108.25
2022-09-13T19:43:10.035Z,98105.50
2022-09-13T19:46:01.867Z,98101.19
2022-09-13T19:48:48.999Z,98109.28
2022-09-13T19:51:36.999Z,98105.41
2022-09-13T19:54:22.236Z,98108.16
2022-09-13T19:57:09.922Z,98105.94
2022-09-13T19:59:55.459Z,98098.28
2022-09-13T20:02:40.706Z,98107.72
2022-09-13T20:05:28.149Z,98103.81
2022-09-13T20:08:13.609Z,98097.28
2022-09-13T20:10:58.923Z,98108.72
2022-09-13T20:13:45.028Z,98106.28
2022-09-13T20:16:32.657Z,98097.50
2022-09-13T20:22:25.225Z,98096.19
2022-09-13T20:25:10.430Z,98103.69
2022-09-13T20:27:55.645Z,98103.59
2022-09-13T20:30:42.265Z,98100.81
2022-09-13T20:33:27.638Z,98102.03
2022-09-13T20:36:15.214Z,98101.25
2022-09-13T20:39:03.445Z,98100.50
2022-09-13T20:41:52.433Z,98106.03
2022-09-13T20:44:37.830Z,98107.28
2022-09-13T20:47:23.238Z,98100.16
2022-09-13T20:50:08.766Z,98117.25
2022-09-13T20:52:55.253Z,98108.28
2022-09-13T20:55:41.579Z,98107.16
2022-09-13T20:58:27.233Z,98105.59
2022-09-13T21:01:21.063Z,98109.16
2022-09-13T21:04:06.244Z,98103.94
2022-09-13T21:07:14.294Z,98104.50
2022-09-13T21:10:00.980Z,98099.28
2022-09-13T21:12:50.481Z,98104.38
2022-09-13T21:15:36.792Z,98102.06
2022-09-13T21:18:22.299Z,98100.06
2022-09-13T21:21:09.209Z,98108.47
2022-09-13T21:23:56.667Z,98101.72
2022-09-13T21:26:42.552Z,98106.84
2022-09-13T21:29:28.935Z,98106.94
2022-09-13T21:32:14.010Z,98114.50
2022-09-13T21:34:59.947Z,98116.47
2022-09-13T21:37:45.332Z,98113.25
2022-09-13T21:40:30.570Z,98117.72
2022-09-13T21:43:15.639Z,98120.81
2022-09-13T21:46:06.327Z,98120.47
2022-09-13T21:48:57.103Z,98119.25
2022-09-13T21:51:46.750Z,98120.91
2022-09-13T21:54:32.262Z,98115.03
2022-09-13T21:57:17.612Z,98116.84
2022-09-13T22:00:05.154Z,98121.16
2022-09-13T22:02:58.452Z,98124.34
2022-09-13T22:05:44.160Z,98123.03
2022-09-13T22:08:32.487Z,98117.03
2022-09-13T22:11:21.971Z,98119.59
2022-09-13T22:14:11.001Z,98117.38
2022-09-13T22:16:56.754Z,98121.81
2022-09-13T22:19:42.251Z,98122.13
2022-09-13T22:22:27.492Z,98128.03
2022-09-13T22:25:12.775Z,98142.31
2022-09-13T22:27:57.859Z,98135.66
2022-09-13T22:30:43.462Z,98128.03
2022-09-13T22:33:28.621Z,98130.03
2022-09-13T22:36:16.194Z,98129.69
2022-09-13T22:39:01.627Z,98133.34
2022-09-13T22:41:46.858Z,98135.34
2022-09-13T22:44:32.491Z,98144.88
2022-09-13T22:47:17.832Z,98139.34
2022-09-13T22:50:03.174Z,98139.34
2022-09-13T22:52:48.982Z,98139.78
2022-09-13T22:55:34.186Z,98142.88
2022-09-13T22:58:19.885Z,98133.47
2022-09-13T23:01:08.347Z,98139.00
2022-09-13T23:03:54.224Z,98133.03
2022-09-13T23:06:40.187Z,98129.16
2022-09-13T23:09:25.676Z,98123.25
2022-09-13T23:12:11.114Z,98120.50
2022-09-13T23:14:56.328Z,98126.69
2022-09-13T23:17:41.648Z,98127.56
2022-09-13T23:20:27.243Z,98135.56
2022-09-13T23:23:12.929Z,98133.13
2022-09-13T23:26:06.905Z,98133.88
2022-09-13T23:28:55.518Z,98130.34
2022-09-13T23:31:40.766Z,98127.91
2022-09-13T23:34:26.253Z,98120.50
2022-09-13T23:37:11.674Z,98124.13
2022-09-13T23:39:59.556Z,98116.69
2022-09-13T23:42:44.745Z,98122.25
2022-09-13T23:45:30.224Z,98104.84
2022-09-13T23:48:15.358Z,98102.50
2022-09-13T23:51:05.559Z,98108.06
2022-09-13T23:53:53.108Z,98105.28
2022-09-13T23:56:38.984Z,98099.72
2022-09-13T23:59:24.436Z,98096.19
